createdAt,value
2023-11-07T00:00:04.369Z,2.85
2023-11-07T00:02:34.846Z,2.50
2023-11-07T00:05:02.694Z,3.47
2023-11-07T00:07:29.741Z,2.72
2023-11-07T00:09:57.217Z,2.55
2023-11-07T00:12:24.302Z,3.45
2023-11-07T00:14:52.208Z,2.42
2023-11-07T00:17:22.066Z,4.13
2023-11-07T00:19:49.757Z,3.50
2023-11-07T00:22:16.857Z,2.47
2023-11-07T00:24:44.879Z,2.22
2023-11-07T00:27:11.901Z,2.17
2023-11-07T00:29:39.835Z,2.15
2023-11-07T00:32:07.447Z,2.67
2023-11-07T00:34:34.978Z,2.67
2023-11-07T00:37:02.081Z,2.13
2023-11-07T00:39:29.562Z,2.30
2023-11-07T00:41:57.682Z,2.20
2023-11-07T00:44:25.314Z,2.70
2023-11-07T00:46:52.400Z,1.88
2023-11-07T00:49:20.382Z,2.17
2023-11-07T00:51:48.293Z,1.65
2023-11-07T00:54:15.668Z,2.17
2023-11-07T00:56:42.830Z,2.03
2023-11-07T00:59:10.404Z,2.45
2023-11-07T01:04:05.897Z,2.63
2023-11-07T01:06:33.584Z,1.80
2023-11-07T01:09:01.311Z,2.03
2023-11-07T01:11:28.545Z,3.25
2023-11-07T01:13:55.943Z,2.67
2023-11-07T01:16:23.125Z,3.17
2023-11-07T01:18:54.537Z,2.83
2023-11-07T01:21:31.681Z,2.50
2023-11-07T01:23:59.120Z,2.20
2023-11-07T01:26:26.180Z,3.10
2023-11-07T01:28:53.621Z,3.03
2023-11-07T01:31:23.260Z,2.55
2023-11-07T01:33:50.835Z,3.13
2023-11-07T01:36:17.927Z,2.92
2023-11-07T01:38:45.394Z,2.60
2023-11-07T01:41:12.445Z,2.47
2023-11-07T01:43:40.828Z,2.72
2023-11-07T01:46:09.203Z,2.72
2023-11-07T01:48:37.623Z,3.10
2023-11-07T01:51:05.612Z,2.97
2023-11-07T01:53:33.651Z,2.80
2023-11-07T01:56:00.987Z,3.28
2023-11-07T01:58:28.863Z,2.75
2023-11-07T02:00:56.881Z,3.10
2023-11-07T02:03:26.284Z,3.75
2023-11-07T02:05:53.455Z,3.05
2023-11-07T02:08:25.668Z,3.15
2023-11-07T02:10:53.241Z,3.15
2023-11-07T02:13:20.998Z,2.80
2023-11-07T02:15:48.048Z,3.45
2023-11-07T02:18:15.608Z,2.92
2023-11-07T02:20:46.303Z,3.20
2023-11-07T02:23:28.777Z,2.85
2023-11-07T02:25:56.284Z,4.10
2023-11-07T02:28:23.657Z,3.42
2023-11-07T02:30:51.003Z,2.65
2023-11-07T02:33:21.129Z,2.67
2023-11-07T02:38:18.005Z,3.13
2023-11-07T02:40:45.212Z,2.77
2023-11-07T02:43:13.621Z,3.00
2023-11-07T02:45:40.800Z,2.92
2023-11-07T02:48:08.357Z,2.80
2023-11-07T02:50:35.580Z,3.38
2023-11-07T02:53:04.323Z,2.92
2023-11-07T02:55:31.620Z,3.10
2023-11-07T02:57:58.970Z,3.20
2023-11-07T03:00:27.922Z,3.70
2023-11-07T03:02:56.915Z,2.97
2023-11-07T03:05:24.035Z,2.70
2023-11-07T03:07:51.420Z,3.33
2023-11-07T03:10:18.481Z,4.22
2023-11-07T03:12:48.220Z,3.63
2023-11-07T03:15:16.786Z,3.30
2023-11-07T03:17:44.326Z,5.82
2023-11-07T03:20:12.241Z,4.78
2023-11-07T03:22:39.577Z,4.22
2023-11-07T03:25:06.915Z,4.55
2023-11-07T03:27:34.293Z,5.30
2023-11-07T03:30:01.545Z,3.50
2023-11-07T03:32:29.203Z,3.70
2023-11-07T03:34:56.246Z,3.50
2023-11-07T03:37:23.685Z,3.60
2023-11-07T03:39:51.633Z,3.42
2023-11-07T03:42:19.699Z,3.40
2023-11-07T03:44:47.298Z,2.80
2023-11-07T03:47:15.324Z,3.22
2023-11-07T03:49:42.967Z,4.13
2023-11-07T03:52:10.412Z,4.38
2023-11-07T03:54:37.489Z,3.17
2023-11-07T03:57:05.104Z,3.63
2023-11-07T03:59:32.361Z,3.70
2023-11-07T04:02:01.870Z,3.10
2023-11-07T04:04:28.900Z,3.75
2023-11-07T04:06:56.289Z,4.20
2023-11-07T04:09:23.803Z,3.45
2023-11-07T04:11:51.211Z,3.45
2023-11-07T04:14:22.329Z,3.20
2023-11-07T04:16:49.897Z,4.13
2023-11-07T04:19:17.025Z,3.22
2023-11-07T04:21:45.132Z,3.63
2023-11-07T04:24:13.742Z,3.78
2023-11-07T04:26:42.186Z,3.17
2023-11-07T04:29:09.659Z,3.28
2023-11-07T04:31:39.257Z,3.40
2023-11-07T04:34:11.211Z,3.53
2023-11-07T04:36:43.998Z,3.88
2023-11-07T04:39:13.614Z,3.67
2023-11-07T04:41:42.559Z,2.83
2023-11-07T04:44:09.682Z,2.85
2023-11-07T04:46:38.783Z,3.38
2023-11-07T04:49:08.641Z,3.25
2023-11-07T04:51:37.726Z,3.10
2023-11-07T04:54:05.009Z,3.22
2023-11-07T04:56:33.609Z,3.58
2023-11-07T04:59:00.898Z,2.60
2023-11-07T05:01:28.449Z,2.95
2023-11-07T05:03:56.173Z,5.15
2023-11-07T05:06:24.331Z,3.47
2023-11-07T05:08:52.499Z,3.03
2023-11-07T05:11:19.977Z,3.30
2023-11-07T05:13:47.058Z,3.22
2023-11-07T05:16:14.446Z,2.95
2023-11-07T05:18:42.198Z,3.55
2023-11-07T05:21:09.827Z,4.75
2023-11-07T05:23:37.000Z,3.08
2023-11-07T05:26:04.634Z,2.80
2023-11-07T05:28:31.701Z,2.88
2023-11-07T05:30:59.114Z,3.20
2023-11-07T05:33:26.359Z,3.05
2023-11-07T05:35:53.854Z,3.30
2023-11-07T05:38:22.077Z,3.70
2023-11-07T05:40:50.042Z,3.80
2023-11-07T05:43:17.064Z,4.50
2023-11-07T05:45:44.464Z,4.25
2023-11-07T05:48:12.461Z,5.63
2023-11-07T05:50:40.782Z,3.50
2023-11-07T05:53:09.433Z,3.90
2023-11-07T05:55:36.932Z,3.55
2023-11-07T05:58:04.331Z,3.22
2023-11-07T06:00:34.707Z,4.28
2023-11-07T06:03:02.314Z,2.75
2023-11-07T06:05:29.892Z,3.30
2023-11-07T06:07:59.745Z,2.65
2023-11-07T06:10:27.898Z,4.93
2023-11-07T06:12:55.094Z,7.13
2023-11-07T06:15:23.350Z,6.10
2023-11-07T06:17:50.775Z,4.30
2023-11-07T06:20:19.829Z,3.83
2023-11-07T06:22:47.164Z,3.95
2023-11-07T06:25:16.203Z,3.83
2023-11-07T06:27:43.297Z,3.53
2023-11-07T06:30:11.269Z,4.47
2023-11-07T06:32:38.776Z,4.28
2023-11-07T06:35:07.414Z,3.88
2023-11-07T06:37:35.213Z,4.40
2023-11-07T06:40:17.141Z,4.05
2023-11-07T06:42:48.088Z,4.00
2023-11-07T06:45:16.322Z,4.38
2023-11-07T06:47:46.056Z,4.05
2023-11-07T06:50:15.568Z,3.60
2023-11-07T06:52:48.864Z,3.70
2023-11-07T06:55:16.927Z,5.13
2023-11-07T06:57:44.193Z,3.85
2023-11-07T07:00:12.013Z,6.88
2023-11-07T07:02:42.756Z,4.10
2023-11-07T07:05:14.333Z,6.53
2023-11-07T07:07:42.868Z,3.72
2023-11-07T07:10:11.923Z,6.18
2023-11-07T07:12:39.830Z,3.72
2023-11-07T07:15:08.047Z,4.63
2023-11-07T07:17:35.357Z,5.25
2023-11-07T07:20:04.798Z,4.35
2023-11-07T07:22:36.438Z,4.75
2023-11-07T07:25:06.657Z,4.05
2023-11-07T07:30:03.149Z,4.13
2023-11-07T07:32:31.769Z,4.87
2023-11-07T07:34:59.090Z,4.53
2023-11-07T07:37:26.243Z,5.28
2023-11-07T07:39:53.645Z,4.25
2023-11-07T07:42:20.769Z,4.50
2023-11-07T07:44:51.958Z,4.13
2023-11-07T07:47:19.231Z,3.88
2023-11-07T07:49:47.430Z,3.30
2023-11-07T07:52:14.750Z,3.75
2023-11-07T07:55:01.063Z,3.47
2023-11-07T07:57:32.660Z,3.80
2023-11-07T08:00:00.870Z,3.65
2023-11-07T08:02:28.405Z,3.17
2023-11-07T08:04:57.829Z,2.55
2023-11-07T08:07:24.916Z,3.27
2023-11-07T08:09:52.254Z,2.97
2023-11-07T08:12:19.300Z,3.80
2023-11-07T08:14:48.079Z,3.30
2023-11-07T08:17:15.107Z,2.97
2023-11-07T08:19:42.640Z,3.33
2023-11-07T08:22:10.549Z,2.70
2023-11-07T08:24:38.091Z,2.67
2023-11-07T08:27:05.368Z,2.70
2023-11-07T08:29:32.773Z,2.92
2023-11-07T08:31:59.904Z,2.10
2023-11-07T08:34:33.735Z,2.97
2023-11-07T08:37:07.303Z,2.72
2023-11-07T08:39:42.227Z,2.83
2023-11-07T08:42:10.005Z,2.38
2023-11-07T08:44:37.707Z,2.22
2023-11-07T08:47:04.973Z,3.10
2023-11-07T08:49:32.600Z,6.40
2023-11-07T08:51:59.803Z,2.28
2023-11-07T08:54:27.230Z,2.55
2023-11-07T08:56:57.012Z,3.13
2023-11-07T09:01:52.735Z,3.70
2023-11-07T09:04:21.200Z,3.67
2023-11-07T09:06:48.404Z,4.45
2023-11-07T09:09:17.363Z,3.63
2023-11-07T09:11:47.362Z,4.05
2023-11-07T09:14:15.262Z,4.63
2023-11-07T09:16:42.884Z,4.70
2023-11-07T09:19:12.025Z,5.50
2023-11-07T09:21:39.736Z,4.65
2023-11-07T09:24:07.677Z,4.10
2023-11-07T09:26:35.003Z,3.17
2023-11-07T09:29:02.515Z,3.28
2023-11-07T09:31:29.611Z,3.03
2023-11-07T09:33:57.353Z,3.40
2023-11-07T09:36:25.087Z,2.72
2023-11-07T09:38:53.586Z,3.40
2023-11-07T09:41:20.967Z,3.80
2023-11-07T09:43:50.066Z,3.50
2023-11-07T09:46:21.536Z,3.45
2023-11-07T09:48:52.425Z,2.92
2023-11-07T09:51:22.483Z,2.72
2023-11-07T09:53:52.483Z,3.45
2023-11-07T09:56:23.494Z,2.60
2023-11-07T09:58:53.170Z,3.22
2023-11-07T10:01:22.886Z,2.80
2023-11-07T10:03:53.874Z,3.13
2023-11-07T10:06:21.227Z,2.83
2023-11-07T10:08:49.286Z,2.33
2023-11-07T10:11:16.839Z,2.65
2023-11-07T10:14:09.655Z,2.80
2023-11-07T10:16:38.461Z,3.50
2023-11-07T10:19:08.478Z,2.70
2023-11-07T10:21:36.315Z,1.92
2023-11-07T10:24:04.056Z,2.40
2023-11-07T10:26:32.190Z,2.63
2023-11-07T10:29:18.152Z,2.58
2023-11-07T10:31:59.793Z,2.22
2023-11-07T10:36:55.470Z,2.38
2023-11-07T10:39:26.611Z,2.15
2023-11-07T10:41:57.654Z,2.20
2023-11-07T10:44:28.397Z,2.70
2023-11-07T10:46:58.449Z,2.30
2023-11-07T10:49:26.420Z,2.55
2023-11-07T10:51:54.976Z,2.30
2023-11-07T10:54:23.389Z,2.30
2023-11-07T10:56:52.465Z,3.08
2023-11-07T10:59:26.001Z,1.98
2023-11-07T11:01:54.091Z,1.92
2023-11-07T11:04:27.416Z,2.10
2023-11-07T11:07:02.702Z,2.22
2023-11-07T11:09:33.980Z,2.50
2023-11-07T11:12:05.501Z,2.30
2023-11-07T11:14:33.017Z,1.90
2023-11-07T11:17:28.698Z,2.15
2023-11-07T11:20:05.332Z,2.13
2023-11-07T11:22:39.545Z,1.90
2023-11-07T11:25:16.125Z,1.80
2023-11-07T11:28:00.472Z,2.30
2023-11-07T11:30:33.098Z,2.58
2023-11-07T11:33:10.679Z,2.50
2023-11-07T11:35:41.104Z,2.08
2023-11-07T11:38:17.564Z,5.00
2023-11-07T11:40:56.691Z,3.28
2023-11-07T11:43:27.027Z,2.58
2023-11-07T11:45:57.066Z,2.38
2023-11-07T11:48:53.326Z,2.50
2023-11-07T11:51:33.560Z,3.65
2023-11-07T11:54:01.347Z,2.08
2023-11-07T11:56:29.733Z,2.28
2023-11-07T11:59:08.089Z,2.75
2023-11-07T12:01:56.768Z,2.00
2023-11-07T12:04:41.453Z,2.38
2023-11-07T12:07:12.021Z,3.00
2023-11-07T12:09:57.282Z,5.43
2023-11-07T12:12:26.175Z,2.53
2023-11-07T12:14:54.727Z,2.10
2023-11-07T12:17:23.744Z,3.17
2023-11-07T12:20:09.663Z,2.58
2023-11-07T12:22:38.853Z,2.03
2023-11-07T12:25:18.451Z,4.03
2023-11-07T12:27:58.009Z,2.30
2023-11-07T12:30:25.549Z,4.32
2023-11-07T12:33:01.162Z,2.15
2023-11-07T12:35:30.585Z,1.90
2023-11-07T12:38:02.513Z,1.83
2023-11-07T12:40:29.827Z,1.98
2023-11-07T12:42:58.093Z,3.15
2023-11-07T12:45:29.645Z,1.85
2023-11-07T12:48:07.827Z,1.73
2023-11-07T12:50:43.521Z,2.70
2023-11-07T12:53:11.627Z,2.28
2023-11-07T12:55:39.481Z,1.50
2023-11-07T12:58:08.324Z,4.88
2023-11-07T13:01:02.127Z,2.15
2023-11-07T13:03:33.232Z,1.70
2023-11-07T13:06:08.849Z,1.67
2023-11-07T13:08:38.746Z,3.00
2023-11-07T13:11:27.781Z,1.90
2023-11-07T13:13:55.219Z,1.77
2023-11-07T13:16:23.696Z,1.83
2023-11-07T13:18:58.443Z,1.93
2023-11-07T13:21:26.882Z,2.70
2023-11-07T13:23:54.661Z,2.00
2023-11-07T13:26:22.221Z,2.70
2023-11-07T13:28:49.979Z,2.25
2023-11-07T13:31:17.555Z,1.90
2023-11-07T13:33:46.733Z,1.40
2023-11-07T13:36:16.154Z,2.08
2023-11-07T13:38:47.173Z,4.22
2023-11-07T13:41:15.514Z,22.52
2023-11-07T13:43:43.334Z,4.72
2023-11-07T13:46:11.529Z,7.55
2023-11-07T13:48:39.384Z,6.25
2023-11-07T13:51:08.491Z,83.68
2023-11-07T13:53:37.537Z,8.95
2023-11-07T13:56:05.760Z,139.65
2023-11-07T13:58:33.502Z,192.15
2023-11-07T14:01:00.663Z,51.47
2023-11-07T14:03:28.653Z,7.13
2023-11-07T14:05:56.391Z,7.03
2023-11-07T14:08:25.167Z,4.53
2023-11-07T14:10:53.343Z,3.00
2023-11-07T14:13:21.052Z,2.70
2023-11-07T14:15:51.433Z,6.65
2023-11-07T14:18:23.519Z,8.82
2023-11-07T14:20:59.015Z,4.13
2023-11-07T14:23:27.034Z,3.05
2023-11-07T14:25:54.163Z,3.20
2023-11-07T14:28:21.875Z,3.70
2023-11-07T14:30:49.117Z,5.28
2023-11-07T14:33:18.427Z,4.10
2023-11-07T14:35:49.198Z,2.33
2023-11-07T14:38:22.645Z,8.05
2023-11-07T14:40:51.794Z,4.20
2023-11-07T14:43:19.435Z,5.80
2023-11-07T14:45:46.634Z,5.47
2023-11-07T14:48:17.692Z,4.47
2023-11-07T14:50:46.158Z,3.05
2023-11-07T14:53:16.301Z,2.90
2023-11-07T14:58:11.930Z,20.20
2023-11-07T15:00:42.672Z,19.35
2023-11-07T15:03:11.768Z,59.35
2023-11-07T15:05:41.017Z,101.40
2023-11-07T15:08:09.053Z,72.13
2023-11-07T15:10:36.746Z,5.43
2023-11-07T15:13:06.231Z,4.05
2023-11-07T15:15:34.563Z,3.60
2023-11-07T15:18:05.303Z,4.97
2023-11-07T15:20:33.194Z,4.80
2023-11-07T15:23:02.760Z,3.38
2023-11-07T15:25:38.033Z,3.80
2023-11-07T15:28:05.847Z,7.22
2023-11-07T15:30:35.987Z,25.33
2023-11-07T15:33:04.391Z,10.82
2023-11-07T15:35:37.589Z,15.45
2023-11-07T15:38:08.010Z,5.15
2023-11-07T15:40:36.655Z,3.75
2023-11-07T15:43:06.019Z,2.88
2023-11-07T15:45:34.732Z,3.70
2023-11-07T15:48:08.414Z,4.97
2023-11-07T15:50:36.013Z,3.33
2023-11-07T15:53:08.397Z,6.03
2023-11-07T15:55:38.240Z,5.50
2023-11-07T15:58:06.126Z,9.03
2023-11-07T16:00:35.330Z,11.05
2023-11-07T16:03:05.272Z,9.25
2023-11-07T16:08:03.772Z,8.20
2023-11-07T16:10:32.804Z,9.80
2023-11-07T16:13:00.752Z,8.65
2023-11-07T16:15:27.977Z,8.50
2023-11-07T16:17:55.884Z,7.10
2023-11-07T16:20:23.908Z,6.82
2023-11-07T16:22:51.482Z,7.47
2023-11-07T16:25:19.675Z,9.70
2023-11-07T16:27:47.733Z,11.32
2023-11-07T16:30:17.670Z,10.38
2023-11-07T16:32:45.551Z,10.55
2023-11-07T16:35:13.924Z,8.98
2023-11-07T16:37:41.493Z,19.98
2023-11-07T16:40:12.422Z,20.25
2023-11-07T16:42:42.165Z,28.35
2023-11-07T16:45:13.684Z,35.35
2023-11-07T16:47:43.901Z,20.98
2023-11-07T16:50:14.489Z,27.42
2023-11-07T16:52:42.432Z,77.85
2023-11-07T16:55:15.095Z,58.65
2023-11-07T16:57:45.862Z,23.08
2023-11-07T17:00:15.880Z,29.05
2023-11-07T17:02:43.642Z,24.23
2023-11-07T17:05:12.810Z,30.02
2023-11-07T17:07:40.624Z,22.20
2023-11-07T17:10:08.346Z,12.77
2023-11-07T17:12:36.665Z,11.13
2023-11-07T17:18:24.398Z,13.75
2023-11-07T17:20:51.876Z,11.98
2023-11-07T17:23:19.957Z,24.52
2023-11-07T17:25:47.553Z,21.52
2023-11-07T17:28:15.563Z,13.05
2023-11-07T17:30:43.965Z,15.75
2023-11-07T17:33:11.466Z,23.95
2023-11-07T17:35:42.430Z,21.67
2023-11-07T17:38:10.870Z,19.38
2023-11-07T17:40:38.097Z,27.70
2023-11-07T17:46:23.425Z,22.23
2023-11-07T17:48:51.826Z,19.50
2023-11-07T17:51:27.242Z,22.42
2023-11-07T17:53:56.087Z,20.88
2023-11-07T17:56:24.122Z,27.83
2023-11-07T17:58:53.764Z,22.95
2023-11-07T18:03:49.593Z,29.80
2023-11-07T18:06:17.077Z,13.07
2023-11-07T18:08:44.419Z,10.15
2023-11-07T18:11:11.849Z,4.97
2023-11-07T18:13:39.026Z,4.88
2023-11-07T18:16:09.234Z,5.55
2023-11-07T18:18:36.574Z,5.97
2023-11-07T18:21:24.096Z,19.20
2023-11-07T18:23:51.186Z,19.02
2023-11-07T18:26:22.363Z,17.92
2023-11-07T18:28:50.793Z,20.00
2023-11-07T18:31:19.000Z,8.30
2023-11-07T18:33:50.366Z,9.77
2023-11-07T18:36:20.099Z,7.03
2023-11-07T18:38:48.060Z,6.15
2023-11-07T18:41:17.888Z,8.77
2023-11-07T18:43:45.234Z,8.20
2023-11-07T18:46:13.404Z,7.30
2023-11-07T18:48:40.911Z,7.25
2023-11-07T18:51:10.061Z,8.98
2023-11-07T18:53:45.218Z,11.35
2023-11-07T18:56:14.497Z,6.85
2023-11-07T18:58:41.894Z,6.90
2023-11-07T19:01:10.209Z,8.15
2023-11-07T19:03:37.577Z,14.07
2023-11-07T19:06:06.145Z,9.50
2023-11-07T19:08:33.509Z,10.48
2023-11-07T19:11:01.446Z,14.55
2023-11-07T19:13:29.091Z,11.20
2023-11-07T19:15:56.585Z,14.82
2023-11-07T19:18:27.810Z,11.82
2023-11-07T19:20:55.691Z,6.80
2023-11-07T19:23:23.667Z,8.40
2023-11-07T19:25:53.362Z,11.00
2023-11-07T19:28:30.538Z,12.95
2023-11-07T19:31:03.617Z,8.82
2023-11-07T19:33:31.504Z,10.90
2023-11-07T19:36:03.189Z,17.73
2023-11-07T19:38:31.929Z,13.27
2023-11-07T19:40:59.556Z,8.77
2023-11-07T19:43:34.875Z,8.10
2023-11-07T19:46:09.747Z,7.60
2023-11-07T19:48:37.557Z,8.32
2023-11-07T19:51:05.374Z,10.00
2023-11-07T19:53:33.616Z,7.82
2023-11-07T19:56:01.913Z,8.85
2023-11-07T19:58:29.305Z,7.93
2023-11-07T20:00:57.756Z,6.97
2023-11-07T20:03:30.644Z,7.93
2023-11-07T20:05:58.415Z,7.60
2023-11-07T20:08:26.773Z,6.88
2023-11-07T20:10:54.350Z,7.75
2023-11-07T20:13:22.005Z,5.65
2023-11-07T20:15:49.476Z,6.70
2023-11-07T20:18:17.056Z,7.75
2023-11-07T20:20:46.224Z,6.28
2023-11-07T20:23:16.262Z,5.95
2023-11-07T20:25:43.787Z,6.20
2023-11-07T20:28:10.938Z,6.88
2023-11-07T20:30:38.579Z,7.10
2023-11-07T20:33:08.666Z,6.63
2023-11-07T20:35:40.286Z,7.43
2023-11-07T20:38:08.916Z,6.28
2023-11-07T20:40:38.575Z,6.60
2023-11-07T20:45:36.552Z,6.40
2023-11-07T20:48:04.670Z,7.72
2023-11-07T20:50:36.036Z,6.95
2023-11-07T20:53:04.706Z,10.13
2023-11-07T20:55:34.896Z,11.27
2023-11-07T21:00:35.184Z,7.18
2023-11-07T21:03:02.635Z,7.53
2023-11-07T21:05:30.366Z,7.50
2023-11-07T21:07:57.555Z,6.32
2023-11-07T21:10:27.161Z,8.00
2023-11-07T21:12:54.460Z,8.00
2023-11-07T21:15:22.462Z,6.78
2023-11-07T21:17:49.880Z,6.43
2023-11-07T21:20:17.603Z,6.28
2023-11-07T21:22:44.968Z,7.07
2023-11-07T21:25:12.544Z,7.07
2023-11-07T21:27:39.886Z,6.38
2023-11-07T21:30:07.998Z,6.07
2023-11-07T21:32:36.074Z,7.07
2023-11-07T21:35:10.731Z,6.55
2023-11-07T21:37:38.643Z,6.25
2023-11-07T21:40:09.169Z,5.88
2023-11-07T21:42:39.670Z,6.80
2023-11-07T21:45:11.166Z,6.35
2023-11-07T21:47:48.996Z,5.88
2023-11-07T21:50:18.830Z,6.97
2023-11-07T21:52:46.174Z,6.00
2023-11-07T21:55:13.916Z,8.20
2023-11-07T21:57:44.226Z,5.88
2023-11-07T22:00:16.558Z,5.53
2023-11-07T22:02:45.219Z,6.32
2023-11-07T22:05:17.429Z,5.93
2023-11-07T22:07:47.553Z,5.18
2023-11-07T22:10:17.137Z,5.97
2023-11-07T22:12:44.877Z,5.43
2023-11-07T22:15:14.208Z,4.68
2023-11-07T22:17:45.323Z,4.85
2023-11-07T22:20:16.474Z,5.57
2023-11-07T22:22:45.194Z,5.05
2023-11-07T22:25:13.586Z,5.23
2023-11-07T22:27:40.960Z,5.50
2023-11-07T22:30:11.866Z,5.72
2023-11-07T22:32:41.750Z,5.97
2023-11-07T22:35:10.215Z,5.82
2023-11-07T22:37:38.566Z,5.10
2023-11-07T22:40:06.855Z,6.07
2023-11-07T22:42:41.141Z,5.93
2023-11-07T22:45:09.784Z,5.40
2023-11-07T22:47:40.090Z,5.85
2023-11-07T22:50:08.402Z,6.45
2023-11-07T22:52:35.647Z,7.03
2023-11-07T22:55:03.846Z,5.53
2023-11-07T22:57:31.392Z,6.78
2023-11-07T22:59:58.866Z,5.32
2023-11-07T23:02:25.977Z,5.32
2023-11-07T23:04:53.475Z,5.85
2023-11-07T23:07:21.781Z,4.97
2023-11-07T23:09:50.427Z,5.32
2023-11-07T23:12:17.785Z,6.03
2023-11-07T23:14:46.519Z,5.00
2023-11-07T23:17:14.623Z,5.20
2023-11-07T23:19:42.691Z,7.75
2023-11-07T23:22:13.967Z,5.70
2023-11-07T23:24:44.902Z,5.43
2023-11-07T23:27:15.517Z,4.60
2023-11-07T23:29:45.278Z,5.05
2023-11-07T23:32:12.748Z,5.20
2023-11-07T23:34:41.226Z,4.63
2023-11-07T23:37:09.518Z,5.00
2023-11-07T23:39:36.986Z,4.75
2023-11-07T23:42:04.313Z,4.28
2023-11-07T23:44:31.792Z,5.40
2023-11-07T23:46:58.921Z,4.85
2023-11-07T23:49:26.468Z,4.38
2023-11-07T23:51:53.595Z,4.80
2023-11-07T23:54:21.179Z,6.30
2023-11-07T23:56:48.421Z,4.88
2023-11-07T23:59:16.164Z,4.85
